• Join FlightAware (Why Join?)
  • Login
  • US Flag 
09:50PM EDT


 

Airport Tracker/Info


-or-


 

Live Flight TrackerFlight Track Log ✈ SWA1130 ✈ 13-May-2013 ✈ KMHT - KBWI

Flight Track Log - Related Links

Times and Time Zones

All times are in EDT time to prevent confusion due to time zone crossing. See the SWA1130 flight status page for this flight to view local times or setup timezone preferences in your user account.

Time Position Orientation Groundspeed Altitude Reporting Facility
EDT Latitude Longitude Course Direction KTS MPH feet Rate Location/Type
06:10AM 42.9500 -71.4167 36° Northeast 155 178 1,100  Level KA90
06:10AM 42.9667 -71.4000 36° Northeast 184 212 1,800 1,620 Climbing KA90
06:11AM 42.9958 -71.3842 22° Northeast 220 253 3,000 2,880 Climbing Boston Center
06:12AM 43.0389 -71.3125 51° Northeast 235 270 6,600 3,600 Climbing Boston Center
06:13AM 43.0481 -71.2097 83° East 250 288 10,200 3,360 Climbing Boston Center
06:14AM 43.0617 -71.1103 79° East 286 329 13,400 3,120 Climbing Boston Center
06:15AM 43.0622 -70.9822 90° East 301 346 16,500 2,220 Climbing Boston Center
06:16AM 43.0028 -70.9042 136° Southeast 291 335 17,900 1,320 Climbing Boston Center
06:17AM 42.9194 -70.9147 185° South 296 341 19,200 2,100 Climbing Boston Center
06:18AM 42.8306 -70.9567 199° South 309 356 22,100 2,820 Climbing Boston Center
06:19AM 42.7436 -71.0039 202° Southwest 320 368 24,900 2,400 Climbing Boston Center
06:20AM 42.6906 -71.1039 234° Southwest 320 368 27,000 2,040 Climbing Boston Center
06:21AM 42.6397 -71.2125 238° Southwest 327 376 29,000 1,680 Climbing Boston Center
06:22AM 42.5908 -71.3233 239° Southwest 338 389 30,400 1,500 Climbing Boston Center
06:23AM 42.5419 -71.4314 238° Southwest 348 400 32,100 1,500 Climbing Boston Center
06:24AM 42.4783 -71.5561 235° Southwest 355 409 33,500 900 Climbing Boston Center
06:25AM 42.4250 -71.6722 238° Southwest 360 414 34,000 240 Climbing Boston Center
06:26AM 42.3714 -71.7853 237° Southwest 365 420 34,000  Level Boston Center
06:27AM 42.3158 -71.9039 238° Southwest 371 427 34,000  Level Boston Center
06:28AM 42.2600 -72.0194 237° Southwest 371 427 34,000  Level Boston Center
06:29AM 42.2061 -72.1375 238° Southwest 371 427 34,000  Level Boston Center
06:30AM 42.1503 -72.2525 237° Southwest 371 427 34,000  Level Boston Center
06:31AM 42.0961 -72.3672 238° Southwest 371 427 34,000  Level Boston Center
06:32AM 42.0397 -72.4847 237° Southwest 371 427 34,000  Level Boston Center
06:33AM 41.9708 -72.6272 237° Southwest 371 427 34,000  Level Boston Center
06:34AM 41.9081 -72.7331 231° Southwest 366 421 34,000  Level Boston Center
06:35AM 41.8350 -72.8303 225° Southwest 376 433 34,000 -180 Level Boston Center
06:36AM 41.7700 -72.9244 227° Southwest 382 440 33,700 -660 Descending Boston Center
06:37AM 41.6967 -73.0239 225° Southwest 382 440 32,700 -900 Descending Boston Center
06:38AM 41.6419 -73.0983 225° Southwest 376 433 31,900 -960 Descending Boston Center
06:39AM 41.5619 -73.2086 226° Southwest 363 418 30,800 -1,140 Descending Boston Center
06:40AM 41.4883 -73.3047 224° Southwest 345 397 29,700 -1,080 Descending Boston Center
06:41AM 41.4211 -73.3950 225° Southwest 345 397 28,700 -1,020 Descending Boston Center
06:42AM 41.3492 -73.4936 226° Southwest 355 409 27,700 -960 Descending Boston Center
06:43AM 41.2542 -73.6303 227° Southwest 350 403 26,300 -720 Descending New York Center
06:44AM 41.1953 -73.7297 232° Southwest 350 403 26,000 -180 Descending New York Center
06:45AM 41.1344 -73.8317 232° Southwest 350 403 26,000  Level New York Center
06:46AM 41.0756 -73.9308 232° Southwest 350 403 26,000  Level New York Center
06:47AM 41.0100 -74.0433 232° Southwest 356 410 26,000  Level New York Center
06:48AM 40.9489 -74.1419 231° Southwest 356 410 26,000  Level New York Center
06:49AM 40.8922 -74.2297 230° Southwest 362 417 26,000  Level New York Center
06:50AM 40.8331 -74.3308 232° Southwest 362 417 26,000  Level New York Center
06:51AM 40.7717 -74.4292 231° Southwest 362 417 26,000 -120 Level New York Center
06:52AM 40.7122 -74.5272 231° Southwest 362 417 25,800 -600 Descending New York Center
06:53AM 40.6550 -74.6253 232° Southwest 362 417 24,800 -1,020 Descending New York Center
06:54AM 40.5933 -74.7203 229° Southwest 356 410 23,800 -1,020 Descending New York Center
06:55AM 40.5342 -74.8125 230° Southwest 350 403 22,800 -1,020 Descending New York Center
06:56AM 40.4706 -74.9042 228° Southwest 345 397 21,800 -1,020 Descending New York Center
06:57AM 40.4069 -74.9931 227° Southwest 345 397 20,800 -1,020 Descending New York Center
06:58AM 40.3411 -75.0817 226° Southwest 345 397 19,800 -1,080 Descending New York Center
06:59AM 40.2731 -75.1781 227° Southwest 340 391 18,700 -900 Descending New York Center
07:00AM 40.2158 -75.2586 227° Southwest 334 384 18,000 -360 Descending New York Center
07:01AM 40.1542 -75.3442 227° Southwest 334 384 18,000  Level New York Center
07:02AM 40.0858 -75.4375 226° Southwest 334 384 18,000  Level New York Center
07:03AM 40.0219 -75.5225 226° Southwest 334 384 18,000 -240 Level New York Center
07:04AM 39.9622 -75.6106 229° Southwest 334 384 17,600 -780 Descending New York Center
07:05AM 39.9042 -75.6986 229° Southwest 334 384 16,500 -1,020 Descending New York Center
07:06AM 39.8522 -75.7950 235° Southwest 334 384 15,600 -1,080 Descending New York Center
07:08AM 39.7831 -75.9004 237° Southwest  Level FlightAware Approximate
07:10AM 39.7000 -76.0833 270° West 303 349 12,100  Level Potomac TRACON
07:11AM 39.6264 -76.1661 226° Southwest  Level Estimated
07:13AM 39.5500 -76.2833 270° West 254 292 9,300  Level Potomac TRACON
07:14AM 39.4739 -76.3620 207° Southwest  Level Estimated
07:15AM 39.3333 -76.5029 270° West  Level FlightAware Approximate
07:15AM 39.4333 -76.4000 207° Southwest 262 302 7,300  Level Potomac TRACON
07:15AM 39.3833 -76.4500 218° Southwest 265 305 5,800 -1,200 Descending Potomac TRACON
07:16AM 39.3000 -76.4667 189° South 269 310 5,000 -1,020 Descending Potomac TRACON
07:18AM 39.1667 -76.6667 270° West  Level FlightAware Approximate
07:18AM 39.2333 -76.5000 201° Southwest 260 299 3,700  Level Potomac TRACON
07:18AM 39.1667 -76.5333 201° Southwest 246 283 2,700 -840 Descending Potomac TRACON
07:19AM 39.1167 -76.5667 207° Southwest 203 234 2,200 -660 Descending Potomac TRACON
07:20AM 39.1000 -76.6000 237° Southwest 169 194 1,500 -780 Descending Potomac TRACON
07:21AM 39.1333 -76.6333 322° Northwest 142 163 800 -720 Descending Potomac TRACON
07:23AM 39.1667 -76.6667 270° West  Level FlightAware Approximate
07:30AM 39.1754 -76.6683 270° West  Level Estimated
07:31AM 39.1754 -76.6683 270° West  Level Estimated
07:32AM 39.1754 -76.6683 270° West  Level Estimated